sensor_id;sensor_type;location;lat;lon;timestamp;pressure;altitude;pressure_sealevel;temperature;humidity
9774;BME280;4926;42.670;23.316;2023-03-15T00:01:27;93484.75;;;8.26;50.88
9774;BME280;4926;42.670;23.316;2023-03-15T00:03:56;93484.16;;;8.16;51.41
9774;BME280;4926;42.670;23.316;2023-03-15T00:06:22;93466.25;;;7.99;51.69
9774;BME280;4926;42.670;23.316;2023-03-15T00:08:49;93475.25;;;8.12;51.67
9774;BME280;4926;42.670;23.316;2023-03-15T00:11:18;93477.31;;;8.15;51.98
9774;BME280;4926;42.670;23.316;2023-03-15T00:13:46;93448.84;;;8.07;51.54
9774;BME280;4926;42.670;23.316;2023-03-15T00:16:13;93474.53;;;8.20;51.65
9774;BME280;4926;42.670;23.316;2023-03-15T00:18:44;93487.81;;;8.20;51.70
9774;BME280;4926;42.670;23.316;2023-03-15T00:21:11;93477.91;;;8.12;51.93
9774;BME280;4926;42.670;23.316;2023-03-15T00:23:40;93477.41;;;8.10;52.24
9774;BME280;4926;42.670;23.316;2023-03-15T00:26:07;93484.66;;;8.18;52.33
9774;BME280;4926;42.670;23.316;2023-03-15T00:28:35;93468.88;;;8.13;52.45
9774;BME280;4926;42.670;23.316;2023-03-15T00:31:07;93475.16;;;8.17;52.44
9774;BME280;4926;42.670;23.316;2023-03-15T00:33:34;93469.34;;;8.15;52.64
9774;BME280;4926;42.670;23.316;2023-03-15T00:36:03;93464.44;;;8.22;52.13
9774;BME280;4926;42.670;23.316;2023-03-15T00:38:30;93469.25;;;8.20;51.58
9774;BME280;4926;42.670;23.316;2023-03-15T00:41:03;93465.81;;;8.19;51.63
9774;BME280;4926;42.670;23.316;2023-03-15T00:43:31;93449.34;;;8.09;51.45
9774;BME280;4926;42.670;23.316;2023-03-15T00:46:03;93462.66;;;8.17;51.57
9774;BME280;4926;42.670;23.316;2023-03-15T00:48:30;93464.66;;;8.12;51.85
9774;BME280;4926;42.670;23.316;2023-03-15T00:51:03;93461.28;;;8.20;52.13
9774;BME280;4926;42.670;23.316;2023-03-15T00:53:31;93447.66;;;8.13;51.82
9774;BME280;4926;42.670;23.316;2023-03-15T00:55:57;93453.56;;;8.10;52.32
9774;BME280;4926;42.670;23.316;2023-03-15T00:58:24;93442.97;;;8.10;51.92
9774;BME280;4926;42.670;23.316;2023-03-15T01:00:54;93444.09;;;8.17;51.99
9774;BME280;4926;42.670;23.316;2023-03-15T01:03:22;93420.66;;;8.11;51.88
9774;BME280;4926;42.670;23.316;2023-03-15T01:05:51;93434.09;;;8.28;51.59
9774;BME280;4926;42.670;23.316;2023-03-15T01:08:20;93435.19;;;8.27;51.30
9774;BME280;4926;42.670;23.316;2023-03-15T01:10:48;93426.31;;;8.31;51.52
9774;BME280;4926;42.670;23.316;2023-03-15T01:13:20;93430.88;;;8.31;51.37
9774;BME280;4926;42.670;23.316;2023-03-15T01:15:46;93427.72;;;8.29;51.34
9774;BME280;4926;42.670;23.316;2023-03-15T01:18:16;93442.06;;;8.14;51.76
9774;BME280;4926;42.670;23.316;2023-03-15T01:20:44;93430.28;;;8.07;52.26
9774;BME280;4926;42.670;23.316;2023-03-15T01:23:11;93401.09;;;7.84;52.71
9774;BME280;4926;42.670;23.316;2023-03-15T01:25:38;93428.84;;;8.01;53.15
9774;BME280;4926;42.670;23.316;2023-03-15T01:28:07;93412.72;;;8.11;52.68
9774;BME280;4926;42.670;23.316;2023-03-15T01:30:34;93420.06;;;8.14;52.37
9774;BME280;4926;42.670;23.316;2023-03-15T01:33:03;93411.66;;;8.12;52.47
9774;BME280;4926;42.670;23.316;2023-03-15T01:35:30;93408.16;;;8.03;52.62
9774;BME280;4926;42.670;23.316;2023-03-15T01:37:58;93415.59;;;8.01;52.35
9774;BME280;4926;42.670;23.316;2023-03-15T01:40:25;93404.31;;;7.95;52.51
9774;BME280;4926;42.670;23.316;2023-03-15T01:43:14;93403.41;;;8.00;52.76
9774;BME280;4926;42.670;23.316;2023-03-15T01:46:01;93401.13;;;8.07;52.38
9774;BME280;4926;42.670;23.316;2023-03-15T01:48:34;93402.41;;;8.09;52.63
9774;BME280;4926;42.670;23.316;2023-03-15T01:51:06;93400.44;;;8.15;52.43
9774;BME280;4926;42.670;23.316;2023-03-15T01:53:41;93397.31;;;8.13;52.50
9774;BME280;4926;42.670;23.316;2023-03-15T01:56:09;93386.53;;;8.09;52.69
9774;BME280;4926;42.670;23.316;2023-03-15T01:58:39;93394.16;;;8.11;52.31
9774;BME280;4926;42.670;23.316;2023-03-15T02:01:07;93370.19;;;7.93;52.79
9774;BME280;4926;42.670;23.316;2023-03-15T02:03:37;93384.78;;;8.05;52.93
9774;BME280;4926;42.670;23.316;2023-03-15T02:06:14;93380.81;;;8.16;52.99
9774;BME280;4926;42.670;23.316;2023-03-15T02:08:47;93365.03;;;8.11;53.05
9774;BME280;4926;42.670;23.316;2023-03-15T02:11:17;93370.06;;;8.21;52.87
9774;BME280;4926;42.670;23.316;2023-03-15T02:13:47;93368.03;;;8.18;52.91
9774;BME280;4926;42.670;23.316;2023-03-15T02:16:27;93365.69;;;8.16;53.12
9774;BME280;4926;42.670;23.316;2023-03-15T02:18:57;93365.69;;;8.16;53.10
9774;BME280;4926;42.670;23.316;2023-03-15T02:21:35;93358.84;;;8.15;52.57
9774;BME280;4926;42.670;23.316;2023-03-15T02:24:15;93356.47;;;8.14;52.29
9774;BME280;4926;42.670;23.316;2023-03-15T02:26:47;93361.31;;;8.12;52.19
9774;BME280;4926;42.670;23.316;2023-03-15T02:29:18;93354.66;;;8.01;52.17
9774;BME280;4926;42.670;23.316;2023-03-15T02:31:45;93342.81;;;7.84;52.19
9774;BME280;4926;42.670;23.316;2023-03-15T02:34:12;93356.06;;;7.84;52.46
9774;BME280;4926;42.670;23.316;2023-03-15T02:36:39;93357.94;;;7.84;52.59
9774;BME280;4926;42.670;23.316;2023-03-15T02:39:13;93357.06;;;7.88;52.62
9774;BME280;4926;42.670;23.316;2023-03-15T02:41:46;93356.44;;;7.91;52.57
9774;BME280;4926;42.670;23.316;2023-03-15T02:44:16;93363.13;;;7.89;52.62
9774;BME280;4926;42.670;23.316;2023-03-15T02:46:48;93356.44;;;7.91;52.51
9774;BME280;4926;42.670;23.316;2023-03-15T02:49:16;93341.28;;;7.83;52.28
9774;BME280;4926;42.670;23.316;2023-03-15T02:51:42;93338.44;;;7.66;52.25
9774;BME280;4926;42.670;23.316;2023-03-15T02:54:09;93349.97;;;7.48;52.41
9774;BME280;4926;42.670;23.316;2023-03-15T02:56:36;93331.56;;;7.43;52.31
9774;BME280;4926;42.670;23.316;2023-03-15T02:59:03;93337.66;;;7.03;52.53
9774;BME280;4926;42.670;23.316;2023-03-15T03:01:29;93337.84;;;7.20;52.35
9774;BME280;4926;42.670;23.316;2023-03-15T03:04:02;93335.50;;;7.32;51.84
9774;BME280;4926;42.670;23.316;2023-03-15T03:06:29;93340.78;;;7.32;51.93
9774;BME280;4926;42.670;23.316;2023-03-15T03:09:04;93337.16;;;7.28;53.12
9774;BME280;4926;42.670;23.316;2023-03-15T03:11:33;93329.53;;;7.00;53.52
9774;BME280;4926;42.670;23.316;2023-03-15T03:13:59;93315.41;;;7.04;53.38
9774;BME280;4926;42.670;23.316;2023-03-15T03:16:26;93324.44;;;7.03;53.85
9774;BME280;4926;42.670;23.316;2023-03-15T03:18:55;93327.75;;;6.68;54.56
9774;BME280;4926;42.670;23.316;2023-03-15T03:21:25;93332.75;;;6.69;53.82
9774;BME280;4926;42.670;23.316;2023-03-15T03:23:52;93322.94;;;6.70;52.81
9774;BME280;4926;42.670;23.316;2023-03-15T03:26:18;93327.66;;;6.59;53.21
9774;BME280;4926;42.670;23.316;2023-03-15T03:28:53;93320.16;;;6.48;52.79
9774;BME280;4926;42.670;23.316;2023-03-15T03:31:23;93313.88;;;6.30;53.09
9774;BME280;4926;42.670;23.316;2023-03-15T03:33:52;93316.41;;;6.35;53.30
9774;BME280;4926;42.670;23.316;2023-03-15T03:36:24;93317.41;;;6.39;53.88
9774;BME280;4926;42.670;23.316;2023-03-15T03:38:53;93309.69;;;6.43;53.38
9774;BME280;4926;42.670;23.316;2023-03-15T03:41:24;93313.00;;;6.35;53.90
9774;BME280;4926;42.670;23.316;2023-03-15T03:43:50;93298.81;;;6.31;54.61
9774;BME280;4926;42.670;23.316;2023-03-15T03:46:17;93306.66;;;6.49;53.89
9774;BME280;4926;42.670;23.316;2023-03-15T03:48:44;93307.03;;;6.43;54.18
9774;BME280;4926;42.670;23.316;2023-03-15T03:51:10;93303.66;;;6.56;53.97
9774;BME280;4926;42.670;23.316;2023-03-15T03:53:38;93309.16;;;6.73;53.53
9774;BME280;4926;42.670;23.316;2023-03-15T03:56:14;93289.44;;;6.79;53.60
9774;BME280;4926;42.670;23.316;2023-03-15T03:58:41;93298.56;;;7.00;53.90
9774;BME280;4926;42.670;23.316;2023-03-15T04:01:08;93288.47;;;7.02;53.98
9774;BME280;4926;42.670;23.316;2023-03-15T04:03:34;93290.97;;;7.21;53.73
9774;BME280;4926;42.670;23.316;2023-03-15T04:06:03;93288.03;;;7.36;53.41
9774;BME280;4926;42.670;23.316;2023-03-15T04:08:30;93276.44;;;7.45;53.28
9774;BME280;4926;42.670;23.316;2023-03-15T04:10:58;93283.31;;;7.46;52.91
9774;BME280;4926;42.670;23.316;2023-03-15T04:13:28;93275.66;;;7.45;53.17
9774;BME280;4926;42.670;23.316;2023-03-15T04:15:56;93277.78;;;7.56;52.49
9774;BME280;4926;42.670;23.316;2023-03-15T04:18:23;93280.41;;;7.34;52.45
9774;BME280;4926;42.670;23.316;2023-03-15T04:20:52;93274.00;;;7.35;51.75
9774;BME280;4926;42.670;23.316;2023-03-15T04:23:20;93276.53;;;7.40;51.97
9774;BME280;4926;42.670;23.316;2023-03-15T04:25:47;93280.47;;;7.43;52.23
9774;BME280;4926;42.670;23.316;2023-03-15T04:28:16;93275.88;;;7.35;52.60
9774;BME280;4926;42.670;23.316;2023-03-15T04:30:45;93276.16;;;7.33;52.57
9774;BME280;4926;42.670;23.316;2023-03-15T04:33:13;93273.13;;;7.26;52.65
9774;BME280;4926;42.670;23.316;2023-03-15T04:35:40;93275.66;;;7.31;52.81
9774;BME280;4926;42.670;23.316;2023-03-15T04:38:12;93263.91;;;7.37;52.28
9774;BME280;4926;42.670;23.316;2023-03-15T04:40:39;93266.44;;;7.42;52.40
9774;BME280;4926;42.670;23.316;2023-03-15T04:43:07;93268.03;;;7.43;51.90
9774;BME280;4926;42.670;23.316;2023-03-15T04:45:35;93272.66;;;7.38;52.05
9774;BME280;4926;42.670;23.316;2023-03-15T04:48:02;93268.47;;;7.45;51.29
9774;BME280;4926;42.670;23.316;2023-03-15T04:50:32;93271.63;;;7.47;51.40
9774;BME280;4926;42.670;23.316;2023-03-15T04:52:59;93273.69;;;7.50;50.84
9774;BME280;4926;42.670;23.316;2023-03-15T04:55:25;93267.19;;;7.56;51.11
9774;BME280;4926;42.670;23.316;2023-03-15T04:57:52;93259.19;;;7.48;50.76
9774;BME280;4926;42.670;23.316;2023-03-15T05:00:23;93260.66;;;7.40;51.36
9774;BME280;4926;42.670;23.316;2023-03-15T05:02:52;93258.72;;;7.32;51.31
9774;BME280;4926;42.670;23.316;2023-03-15T05:05:25;93263.53;;;7.30;51.11
9774;BME280;4926;42.670;23.316;2023-03-15T05:07:53;93270.00;;;7.24;51.14
9774;BME280;4926;42.670;23.316;2023-03-15T05:10:20;93275.28;;;7.24;50.88
9774;BME280;4926;42.670;23.316;2023-03-15T05:12:47;93277.22;;;7.10;51.31
9774;BME280;4926;42.670;23.316;2023-03-15T05:15:14;93272.63;;;6.75;51.28
9774;BME280;4926;42.670;23.316;2023-03-15T05:17:41;93280.22;;;6.49;52.45
9774;BME280;4926;42.670;23.316;2023-03-15T05:20:13;93272.59;;;6.48;53.38
9774;BME280;4926;42.670;23.316;2023-03-15T05:22:41;93273.97;;;6.45;53.29
9774;BME280;4926;42.670;23.316;2023-03-15T05:25:09;93273.28;;;6.67;52.86
9774;BME280;4926;42.670;23.316;2023-03-15T05:27:36;93274.94;;;6.49;52.90
9774;BME280;4926;42.670;23.316;2023-03-15T05:30:04;93258.38;;;6.44;53.18
9774;BME280;4926;42.670;23.316;2023-03-15T05:32:34;93271.63;;;6.71;52.77
9774;BME280;4926;42.670;23.316;2023-03-15T05:35:05;93269.16;;;6.47;53.41
9774;BME280;4926;42.670;23.316;2023-03-15T05:37:33;93271.78;;;6.20;54.64
9774;BME280;4926;42.670;23.316;2023-03-15T05:40:00;93270.34;;;5.77;56.15
9774;BME280;4926;42.670;23.316;2023-03-15T05:42:32;93282.19;;;5.80;56.93
9774;BME280;4926;42.670;23.316;2023-03-15T05:45:01;93275.47;;;5.68;57.57
9774;BME280;4926;42.670;23.316;2023-03-15T05:47:28;93287.75;;;5.78;57.41
9774;BME280;4926;42.670;23.316;2023-03-15T05:49:54;93277.69;;;5.99;57.64
9774;BME280;4926;42.670;23.316;2023-03-15T05:52:21;93271.91;;;5.97;57.48
9774;BME280;4926;42.670;23.316;2023-03-15T05:54:49;93274.63;;;5.92;58.22
9774;BME280;4926;42.670;23.316;2023-03-15T05:57:16;93270.25;;;6.01;58.14
9774;BME280;4926;42.670;23.316;2023-03-15T05:59:43;93280.31;;;5.99;58.23
9774;BME280;4926;42.670;23.316;2023-03-15T06:02:09;93281.31;;;6.03;58.87
9774;BME280;4926;42.670;23.316;2023-03-15T06:04:36;93280.72;;;6.06;58.61
9774;BME280;4926;42.670;23.316;2023-03-15T06:07:03;93279.19;;;6.05;58.28
9774;BME280;4926;42.670;23.316;2023-03-15T06:09:30;93271.34;;;6.00;58.39
9774;BME280;4926;42.670;23.316;2023-03-15T06:12:01;93273.97;;;6.00;58.61
9774;BME280;4926;42.670;23.316;2023-03-15T06:14:28;93282.47;;;5.97;59.02
9774;BME280;4926;42.670;23.316;2023-03-15T06:16:55;93274.31;;;6.12;58.23
9774;BME280;4926;42.670;23.316;2023-03-15T06:19:22;93275.69;;;6.23;56.69
9774;BME280;4926;42.670;23.316;2023-03-15T06:21:49;93264.94;;;6.33;56.71
9774;BME280;4926;42.670;23.316;2023-03-15T06:24:16;93280.91;;;6.55;56.51
9774;BME280;4926;42.670;23.316;2023-03-15T06:26:42;93284.06;;;6.84;54.90
9774;BME280;4926;42.670;23.316;2023-03-15T06:29:10;93284.47;;;7.05;55.36
9774;BME280;4926;42.670;23.316;2023-03-15T06:31:37;93274.53;;;7.24;54.28
9774;BME280;4926;42.670;23.316;2023-03-15T06:34:04;93256.34;;;7.44;53.99
9774;BME280;4926;42.670;23.316;2023-03-15T06:36:31;93254.50;;;7.89;52.74
9774;BME280;4926;42.670;23.316;2023-03-15T06:38:57;93251.41;;;8.40;51.42
9774;BME280;4926;42.670;23.316;2023-03-15T06:41:24;93251.09;;;8.72;50.49
9774;BME280;4926;42.670;23.316;2023-03-15T06:43:51;93253.97;;;9.01;49.93
9774;BME280;4926;42.670;23.316;2023-03-15T06:46:19;93238.88;;;9.27;49.18
9774;BME280;4926;42.670;23.316;2023-03-15T06:48:46;93231.59;;;9.58;48.52
9774;BME280;4926;42.670;23.316;2023-03-15T06:51:13;93223.44;;;9.80;48.02
9774;BME280;4926;42.670;23.316;2023-03-15T06:53:42;93228.91;;;10.01;46.62
9774;BME280;4926;42.670;23.316;2023-03-15T06:56:09;93235.13;;;10.31;46.19
9774;BME280;4926;42.670;23.316;2023-03-15T06:58:36;93230.22;;;10.50;46.14
9774;BME280;4926;42.670;23.316;2023-03-15T07:01:10;93205.03;;;10.56;45.09
9774;BME280;4926;42.670;23.316;2023-03-15T07:03:38;93203.00;;;10.53;45.46
9774;BME280;4926;42.670;23.316;2023-03-15T07:06:04;93205.84;;;10.48;45.29
9774;BME280;4926;42.670;23.316;2023-03-15T07:08:31;93214.59;;;10.48;45.44
9774;BME280;4926;42.670;23.316;2023-03-15T07:10:58;93207.41;;;10.78;45.05
9774;BME280;4926;42.670;23.316;2023-03-15T07:13:25;93197.81;;;11.14;44.65
9774;BME280;4926;42.670;23.316;2023-03-15T07:15:52;93206.44;;;11.61;43.28
9774;BME280;4926;42.670;23.316;2023-03-15T07:18:19;93193.69;;;11.46;43.75
9774;BME280;4926;42.670;23.316;2023-03-15T07:20:54;93190.34;;;11.58;43.25
9774;BME280;4926;42.670;23.316;2023-03-15T07:23:21;93200.59;;;11.47;43.82
9774;BME280;4926;42.670;23.316;2023-03-15T07:25:48;93200.59;;;11.27;43.68
9774;BME280;4926;42.670;23.316;2023-03-15T07:28:14;93212.31;;;11.96;43.23
9774;BME280;4926;42.670;23.316;2023-03-15T07:30:51;93199.88;;;12.32;42.24
9774;BME280;4926;42.670;23.316;2023-03-15T07:33:19;93183.19;;;12.35;41.88
9774;BME280;4926;42.670;23.316;2023-03-15T07:35:49;93183.00;;;12.08;42.48
9774;BME280;4926;42.670;23.316;2023-03-15T07:38:16;93198.63;;;11.97;42.98
9774;BME280;4926;42.670;23.316;2023-03-15T07:40:46;93199.22;;;12.60;41.93
9774;BME280;4926;42.670;23.316;2023-03-15T07:43:18;93170.34;;;13.22;41.12
9774;BME280;4926;42.670;23.316;2023-03-15T07:45:45;93180.22;;;13.45;40.31
9774;BME280;4926;42.670;23.316;2023-03-15T07:48:12;93172.44;;;13.40;40.13
9774;BME280;4926;42.670;23.316;2023-03-15T07:50:38;93160.97;;;13.28;40.63
9774;BME280;4926;42.670;23.316;2023-03-15T07:53:09;93159.38;;;13.51;40.06
9774;BME280;4926;42.670;23.316;2023-03-15T07:55:36;93157.63;;;13.43;40.22
9774;BME280;4926;42.670;23.316;2023-03-15T07:58:03;93163.44;;;13.09;40.70
9774;BME280;4926;42.670;23.316;2023-03-15T08:00:31;93168.53;;;12.54;40.98
9774;BME280;4926;42.670;23.316;2023-03-15T08:02:58;93178.94;;;12.22;41.90
9774;BME280;4926;42.670;23.316;2023-03-15T08:05:25;93167.09;;;12.56;41.91
9774;BME280;4926;42.670;23.316;2023-03-15T08:07:53;93174.47;;;12.71;41.74
9774;BME280;4926;42.670;23.316;2023-03-15T08:10:22;93170.22;;;12.58;41.72
9774;BME280;4926;42.670;23.316;2023-03-15T08:12:48;93162.53;;;12.93;41.43
9774;BME280;4926;42.670;23.316;2023-03-15T08:15:15;93155.88;;;12.99;41.23
9774;BME280;4926;42.670;23.316;2023-03-15T08:17:42;93139.50;;;13.00;41.40
9774;BME280;4926;42.670;23.316;2023-03-15T08:20:10;93142.66;;;13.02;41.37
9774;BME280;4926;42.670;23.316;2023-03-15T08:22:39;93138.53;;;13.57;40.63
9774;BME280;4926;42.670;23.316;2023-03-15T08:25:10;93134.47;;;14.18;39.72
9774;BME280;4926;42.670;23.316;2023-03-15T08:27:38;93134.53;;;14.49;38.78
9774;BME280;4926;42.670;23.316;2023-03-15T08:30:07;93130.75;;;13.79;39.80
9774;BME280;4926;42.670;23.316;2023-03-15T08:32:33;93126.03;;;13.88;39.66
9774;BME280;4926;42.670;23.316;2023-03-15T08:35:00;93114.50;;;13.72;39.60
9774;BME280;4926;42.670;23.316;2023-03-15T08:37:27;93126.22;;;13.95;39.67
9774;BME280;4926;42.670;23.316;2023-03-15T08:39:59;93134.63;;;13.66;40.17
9774;BME280;4926;42.670;23.316;2023-03-15T08:42:32;93115.72;;;13.47;40.56
9774;BME280;4926;42.670;23.316;2023-03-15T08:45:01;93121.97;;;13.94;39.72
9774;BME280;4926;42.670;23.316;2023-03-15T08:47:29;93101.13;;;14.43;38.98
9774;BME280;4926;42.670;23.316;2023-03-15T08:49:56;93095.38;;;14.91;37.92
9774;BME280;4926;42.670;23.316;2023-03-15T08:52:23;93110.81;;;14.98;38.32
9774;BME280;4926;42.670;23.316;2023-03-15T08:54:49;93118.03;;;14.63;38.43
9774;BME280;4926;42.670;23.316;2023-03-15T08:57:16;93130.38;;;14.08;39.53
9774;BME280;4926;42.670;23.316;2023-03-15T08:59:43;93130.13;;;13.70;40.63
9774;BME280;4926;42.670;23.316;2023-03-15T09:02:11;93119.09;;;13.32;40.65
9774;BME280;4926;42.670;23.316;2023-03-15T09:04:38;93134.03;;;13.21;41.16
9774;BME280;4926;42.670;23.316;2023-03-15T09:07:04;93134.94;;;13.25;41.19
9774;BME280;4926;42.670;23.316;2023-03-15T09:09:31;93136.53;;;13.02;41.50
9774;BME280;4926;42.670;23.316;2023-03-15T09:12:00;93152.88;;;12.76;42.28
9774;BME280;4926;42.670;23.316;2023-03-15T09:14:27;93155.53;;;12.07;43.42
9774;BME280;4926;42.670;23.316;2023-03-15T09:16:54;93150.41;;;11.90;43.88
9774;BME280;4926;42.670;23.316;2023-03-15T09:19:24;93152.31;;;12.02;44.39
9774;BME280;4926;42.670;23.316;2023-03-15T09:22:00;93154.00;;;12.06;44.40
9774;BME280;4926;42.670;23.316;2023-03-15T09:24:26;93140.50;;;12.35;43.64
9774;BME280;4926;42.670;23.316;2023-03-15T09:26:53;93157.16;;;12.32;44.03
9774;BME280;4926;42.670;23.316;2023-03-15T09:29:20;93153.75;;;11.67;44.48
9774;BME280;4926;42.670;23.316;2023-03-15T09:31:46;93159.25;;;11.20;45.30
9774;BME280;4926;42.670;23.316;2023-03-15T09:34:15;93152.94;;;11.25;45.52
9774;BME280;4926;42.670;23.316;2023-03-15T09:36:43;93151.13;;;11.38;45.64
9774;BME280;4926;42.670;23.316;2023-03-15T09:39:10;93145.91;;;11.70;45.05
9774;BME280;4926;42.670;23.316;2023-03-15T09:41:41;93135.81;;;12.32;44.07
9774;BME280;4926;42.670;23.316;2023-03-15T09:44:14;93121.59;;;13.01;42.49
9774;BME280;4926;42.670;23.316;2023-03-15T09:46:48;93132.03;;;12.46;43.02
9774;BME280;4926;42.670;23.316;2023-03-15T09:49:20;93135.81;;;12.32;43.55
9774;BME280;4926;42.670;23.316;2023-03-15T09:51:56;93098.69;;;12.40;44.05
9774;BME280;4926;42.670;23.316;2023-03-15T09:54:29;93113.56;;;12.28;43.13
9774;BME280;4926;42.670;23.316;2023-03-15T09:56:59;93115.78;;;12.26;43.86
9774;BME280;4926;42.670;23.316;2023-03-15T09:59:32;93119.16;;;12.35;43.52
9774;BME280;4926;42.670;23.316;2023-03-15T10:02:03;93111.81;;;12.20;43.37
9774;BME280;4926;42.670;23.316;2023-03-15T10:04:37;93121.16;;;11.61;44.39
9774;BME280;4926;42.670;23.316;2023-03-15T10:07:13;93125.09;;;11.43;45.35
9774;BME280;4926;42.670;23.316;2023-03-15T10:09:41;93141.00;;;11.72;44.66
9774;BME280;4926;42.670;23.316;2023-03-15T10:12:15;93119.88;;;11.67;45.38
9774;BME280;4926;42.670;23.316;2023-03-15T10:15:04;93133.72;;;11.93;44.59
9774;BME280;4926;42.670;23.316;2023-03-15T10:17:40;93125.03;;;12.29;44.29
9774;BME280;4926;42.670;23.316;2023-03-15T10:20:12;93117.38;;;12.27;44.59
9774;BME280;4926;42.670;23.316;2023-03-15T10:22:49;93125.50;;;12.67;44.01
9774;BME280;4926;42.670;23.316;2023-03-15T10:25:21;93115.38;;;12.85;43.35
9774;BME280;4926;42.670;23.316;2023-03-15T10:27:53;93121.06;;;13.07;42.85
9774;BME280;4926;42.670;23.316;2023-03-15T10:30:23;93110.03;;;13.09;42.77
9774;BME280;4926;42.670;23.316;2023-03-15T10:32:54;93106.13;;;12.94;42.93
9774;BME280;4926;42.670;23.316;2023-03-15T10:35:23;93106.66;;;13.00;43.19
9774;BME280;4926;42.670;23.316;2023-03-15T10:37:52;93106.50;;;13.05;43.11
9774;BME280;4926;42.670;23.316;2023-03-15T10:40:40;93110.94;;;12.89;43.30
9774;BME280;4926;42.670;23.316;2023-03-15T10:43:18;93113.41;;;12.70;43.01
9774;BME280;4926;42.670;23.316;2023-03-15T10:45:48;93119.94;;;12.36;43.36
9774;BME280;4926;42.670;23.316;2023-03-15T10:48:23;93120.59;;;12.33;43.78
9774;BME280;4926;42.670;23.316;2023-03-15T10:50:50;93119.66;;;12.05;44.16
9774;BME280;4926;42.670;23.316;2023-03-15T10:53:18;93111.44;;;12.10;43.80
9774;BME280;4926;42.670;23.316;2023-03-15T10:55:47;93113.41;;;11.89;44.05
9774;BME280;4926;42.670;23.316;2023-03-15T10:58:20;93120.91;;;11.54;45.01
9774;BME280;4926;42.670;23.316;2023-03-15T11:00:49;93128.56;;;11.76;45.23
9774;BME280;4926;42.670;23.316;2023-03-15T11:03:18;93125.44;;;11.74;45.33
9774;BME280;4926;42.670;23.316;2023-03-15T11:05:46;93121.94;;;11.82;44.80
9774;BME280;4926;42.670;23.316;2023-03-15T11:08:15;93127.28;;;11.82;44.70
9774;BME280;4926;42.670;23.316;2023-03-15T11:10:44;93119.38;;;11.74;44.95
9774;BME280;4926;42.670;23.316;2023-03-15T11:13:21;93107.53;;;11.95;44.70
9774;BME280;4926;42.670;23.316;2023-03-15T11:16:00;93113.53;;;12.04;45.24
9774;BME280;4926;42.670;23.316;2023-03-15T11:18:32;93107.22;;;11.64;44.80
9774;BME280;4926;42.670;23.316;2023-03-15T11:21:04;93110.00;;;11.47;45.38
9774;BME280;4926;42.670;23.316;2023-03-15T11:23:35;93115.44;;;11.71;45.22
9774;BME280;4926;42.670;23.316;2023-03-15T11:26:05;93108.41;;;11.87;45.39
9774;BME280;4926;42.670;23.316;2023-03-15T11:28:35;93110.09;;;12.04;44.88
9774;BME280;4926;42.670;23.316;2023-03-15T11:31:05;93106.22;;;12.13;44.30
9774;BME280;4926;42.670;23.316;2023-03-15T11:33:38;93113.81;;;12.35;43.95
9774;BME280;4926;42.670;23.316;2023-03-15T11:36:13;93108.25;;;12.41;43.81
9774;BME280;4926;42.670;23.316;2023-03-15T11:38:43;93106.91;;;12.22;45.66
9774;BME280;4926;42.670;23.316;2023-03-15T11:41:21;93100.88;;;12.01;46.27
9774;BME280;4926;42.670;23.316;2023-03-15T11:44:02;93105.22;;;12.06;46.18
9774;BME280;4926;42.670;23.316;2023-03-15T11:46:34;93106.91;;;12.22;45.89
9774;BME280;4926;42.670;23.316;2023-03-15T11:49:13;93101.81;;;12.17;46.59
9774;BME280;4926;42.670;23.316;2023-03-15T11:51:41;93109.34;;;12.15;47.36
9774;BME280;4926;42.670;23.316;2023-03-15T11:54:12;93105.44;;;12.13;47.29
9774;BME280;4926;42.670;23.316;2023-03-15T11:56:53;93099.53;;;12.07;47.51
9774;BME280;4926;42.670;23.316;2023-03-15T11:59:27;93105.69;;;12.20;47.68
9774;BME280;4926;42.670;23.316;2023-03-15T12:01:57;93101.16;;;12.45;47.55
9774;BME280;4926;42.670;23.316;2023-03-15T12:04:42;93100.00;;;12.33;47.31
9774;BME280;4926;42.670;23.316;2023-03-15T12:07:34;93107.72;;;12.59;47.15
9774;BME280;4926;42.670;23.316;2023-03-15T12:10:30;93095.69;;;12.65;47.23
9774;BME280;4926;42.670;23.316;2023-03-15T12:13:05;93091.34;;;12.73;47.60
9774;BME280;4926;42.670;23.316;2023-03-15T12:15:46;93077.78;;;12.78;47.27
9774;BME280;4926;42.670;23.316;2023-03-15T12:18:17;93081.78;;;12.84;47.36
9774;BME280;4926;42.670;23.316;2023-03-15T12:20:49;93076.44;;;12.84;47.56
9774;BME280;4926;42.670;23.316;2023-03-15T12:23:28;93078.66;;;12.82;47.65
9774;BME280;4926;42.670;23.316;2023-03-15T12:25:57;93068.88;;;12.74;47.52
9774;BME280;4926;42.670;23.316;2023-03-15T12:28:33;93086.03;;;12.73;47.46
9774;BME280;4926;42.670;23.316;2023-03-15T12:31:02;93085.81;;;12.66;47.50
9774;BME280;4926;42.670;23.316;2023-03-15T12:33:33;93087.44;;;12.70;48.20
9774;BME280;4926;42.670;23.316;2023-03-15T12:36:31;93080.22;;;12.71;48.69
9774;BME280;4926;42.670;23.316;2023-03-15T12:39:19;93079.13;;;12.60;48.61
9774;BME280;4926;42.670;23.316;2023-03-15T12:41:47;93086.03;;;12.49;49.23
9774;BME280;4926;42.670;23.316;2023-03-15T12:44:39;93095.00;;;12.32;50.19
9774;BME280;4926;42.670;23.316;2023-03-15T12:47:07;93083.66;;;12.23;50.76
9774;BME280;4926;42.670;23.316;2023-03-15T12:49:39;93084.31;;;12.08;51.13
9774;BME280;4926;42.670;23.316;2023-03-15T12:52:27;93098.13;;;12.10;50.99
9774;BME280;4926;42.670;23.316;2023-03-15T12:55:05;93091.66;;;12.11;49.90
9774;BME280;4926;42.670;23.316;2023-03-15T12:57:38;93084.78;;;12.10;50.11
9774;BME280;4926;42.670;23.316;2023-03-15T13:00:14;93084.69;;;12.18;50.16
9774;BME280;4926;42.670;23.316;2023-03-15T13:02:44;93102.03;;;12.24;49.93
9774;BME280;4926;42.670;23.316;2023-03-15T13:05:20;93090.25;;;12.38;49.61
9774;BME280;4926;42.670;23.316;2023-03-15T13:07:52;93085.13;;;12.45;49.34
9774;BME280;4926;42.670;23.316;2023-03-15T13:10:34;93072.69;;;12.61;49.00
9774;BME280;4926;42.670;23.316;2023-03-15T13:13:07;93072.00;;;12.76;48.46
9774;BME280;4926;42.670;23.316;2023-03-15T13:15:41;93060.94;;;12.89;48.34
9774;BME280;4926;42.670;23.316;2023-03-15T13:18:16;93056.16;;;12.95;47.82
9774;BME280;4926;42.670;23.316;2023-03-15T13:20:52;93057.03;;;12.99;47.15
9774;BME280;4926;42.670;23.316;2023-03-15T13:23:26;93062.25;;;13.19;47.42
9774;BME280;4926;42.670;23.316;2023-03-15T13:26:13;93062.84;;;13.40;46.90
9774;BME280;4926;42.670;23.316;2023-03-15T13:28:46;93058.75;;;13.59;46.39
9774;BME280;4926;42.670;23.316;2023-03-15T13:31:19;93067.38;;;13.52;45.84
9774;BME280;4926;42.670;23.316;2023-03-15T13:33:49;93060.91;;;13.53;45.22